Terminal Aerodrome Forecast
Issued by NWS

Home | Current Version | Previous Version | Graphics & Text | Print | Product List | Glossary On
Versions: 1 2 3 4 5 6 7 8 9 10 11 12 13 14 15 16 17 18 19
000
FTUS43 KGRB 161137
TAFRHI
TAF
KRHI 161137Z 1612/1712 35008KT P6SM -SN SCT015 BKN025
     FM161800 02004KT P6SM SCT020 BKN150
     FM170100 13006KT P6SM SCT060 BKN090
     FM170800 15009KT 6SM -SN SCT015 OVC025=

USA.gov is the U.S. government's official web portal to all federal, state and local government web resources and services.